Time;durP1;ratioP1;P1;durP2;ratioP2;P2;SDS_P1;SDS_P2;PMS_P1;PMS_P2;Temp;Humidity;BMP_temperature;BMP_pressure;BME280_temperature;BME280_humidity;BME280_pressure;Samples;Min_cycle;Max_cycle;Signal;HPM_P1;HPM_P2
2021/01/02 00:01:50;;;;;;;159.25;70.47;;;;;;;;;;638691;216;919104;-70
2021/01/02 00:04:35;;;;;;;126.33;54.17;;;;;;;;;;640656;216;918921;-70
2021/01/02 00:07:02;;;;;;;63.60;32.80;;;;;;;;;;640558;215;1290110;-69
2021/01/02 00:09:28;;;;;;;82.87;42.37;;;;;;;;;;647235;216;917990;-70
2021/01/02 00:12:12;;;;;;;126.83;51.73;;;;;;;;;;638039;215;920320;-70
2021/01/02 00:14:38;;;;;;;97.23;45.87;;;;;;;;;;645947;216;918778;-70
2021/01/02 00:17:10;;;;;;;62.03;32.57;;;;;;;;;;642781;217;918451;-70
2021/01/02 00:19:51;;;;;;;57.00;27.60;;;;;;;;;;642910;217;922451;-70
2021/01/02 00:22:20;;;;;;;55.17;28.10;;;;;;;;;;642079;216;922134;-70
2021/01/02 00:24:49;;;;;;;53.50;27.53;;;;;;;;;;648898;217;919405;-71
2021/01/02 00:27:26;;;;;;;59.67;31.50;;;;;;;;;;643437;215;922351;-70
2021/01/02 00:29:58;;;;;;;44.93;22.77;;;;;;;;;;646361;215;919585;-70
2021/01/02 00:32:25;;;;;;;46.00;25.90;;;;;;;;;;643647;215;918795;-70
2021/01/02 00:34:54;;;;;;;51.60;26.20;;;;;;;;;;644497;217;918101;-70
2021/01/02 00:37:25;;;;;;;74.20;35.53;;;;;;;;;;644636;216;941651;-70
2021/01/02 00:39:56;;;;;;;50.57;28.53;;;;;;;;;;640884;216;918296;-70
2021/01/02 00:42:22;;;;;;;47.07;24.77;;;;;;;;;;641931;215;926062;-70
2021/01/02 00:44:48;;;;;;;42.73;22.87;;;;;;;;;;644537;215;915877;-70
2021/01/02 00:47:14;;;;;;;53.77;25.57;;;;;;;;;;647276;215;916068;-70
2021/01/02 00:49:39;;;;;;;47.73;25.30;;;;;;;;;;644181;215;915816;-71
2021/01/02 00:52:20;;;;;;;65.40;32.47;;;;;;;;;;642928;216;915674;-72
2021/01/02 00:54:47;;;;;;;67.13;30.70;;;;;;;;;;645567;214;915471;-71
2021/01/02 00:57:12;;;;;;;114.87;50.13;;;;;;;;;;646591;215;915272;-70
2021/01/02 00:59:44;;;;;;;52.23;26.20;;;;;;;;;;644211;215;915431;-71
2021/01/02 01:02:14;;;;;;;41.33;22.70;;;;;;;;;;644512;215;915122;-70
2021/01/02 01:04:42;;;;;;;54.00;25.67;;;;;;;;;;642976;216;917728;-70
2021/01/02 01:07:08;;;;;;;46.58;25.52;;;;;;;;;;648363;215;914727;-70
2021/01/02 01:09:34;;;;;;;109.97;50.13;;;;;;;;;;642731;215;914658;-70
2021/01/02 01:12:00;;;;;;;79.55;37.65;;;;;;;;;;644336;215;914908;-71
2021/01/02 01:14:26;;;;;;;63.77;31.27;;;;;;;;;;646307;215;915463;-70
2021/01/02 01:16:52;;;;;;;64.60;32.55;;;;;;;;;;640901;216;915025;-71
2021/01/02 01:19:18;;;;;;;67.60;33.77;;;;;;;;;;641471;215;920636;-70
2021/01/02 01:21:43;;;;;;;69.57;30.97;;;;;;;;;;639522;215;920343;-70
2021/01/02 01:24:12;;;;;;;63.63;31.23;;;;;;;;;;649593;216;901037;-71
2021/01/02 01:26:53;;;;;;;79.32;31.08;;;;;;;;;;647746;216;939715;-70
2021/01/02 01:29:21;;;;;;;66.30;30.67;;;;;;;;;;644268;215;1018672;-71
2021/01/02 01:31:47;;;;;;;63.90;31.97;;;;;;;;;;645668;215;915584;-70
2021/01/02 01:34:13;;;;;;;70.33;33.90;;;;;;;;;;647609;215;885940;-71
2021/01/02 01:36:39;;;;;;;63.83;32.43;;;;;;;;;;640739;215;919346;-71
2021/01/02 01:39:05;;;;;;;63.83;31.77;;;;;;;;;;639499;217;917725;-70
2021/01/02 01:41:32;;;;;;;59.97;31.00;;;;;;;;;;641708;216;939610;-70
2021/01/02 01:44:13;;;;;;;52.90;26.60;;;;;;;;;;645211;215;915024;-71
2021/01/02 01:46:42;;;;;;;64.80;30.90;;;;;;;;;;646652;215;919454;-71
2021/01/02 01:49:08;;;;;;;65.13;31.10;;;;;;;;;;641396;216;913634;-71
2021/01/02 01:51:36;;;;;;;67.62;30.90;;;;;;;;;;644860;215;913688;-71
2021/01/02 01:54:07;;;;;;;76.93;31.27;;;;;;;;;;649665;215;918288;-71
2021/01/02 01:56:35;;;;;;;65.73;29.00;;;;;;;;;;641996;216;937961;-72
2021/01/02 01:59:02;;;;;;;57.90;29.50;;;;;;;;;;647810;215;941647;-71
2021/01/02 02:01:27;;;;;;;53.53;29.90;;;;;;;;;;638575;215;953735;-70
2021/01/02 02:04:10;;;;;;;58.30;28.70;;;;;;;;;;647742;215;915773;-71
2021/01/02 02:06:38;;;;;;;68.77;31.80;;;;;;;;;;643796;217;918907;-71
2021/01/02 02:09:04;;;;;;;59.50;27.98;;;;;;;;;;641736;217;918488;-71
2021/01/02 02:11:31;;;;;;;53.77;28.33;;;;;;;;;;637817;217;919381;-71
2021/01/02 02:14:00;;;;;;;64.00;29.00;;;;;;;;;;648610;215;918711;-71
2021/01/02 02:16:26;;;;;;;60.60;26.67;;;;;;;;;;645578;217;919139;-71
2021/01/02 02:18:52;;;;;;;49.43;26.70;;;;;;;;;;644403;215;920397;-71
2021/01/02 02:21:17;;;;;;;57.65;26.17;;;;;;;;;;641541;215;1061118;-70
2021/01/02 02:23:43;;;;;;;64.37;32.93;;;;;;;;;;648942;215;916536;-72
2021/01/02 02:26:10;;;;;;;59.47;29.67;;;;;;;;;;643025;217;943481;-71
2021/01/02 02:28:46;;;;;;;63.00;30.97;;;;;;;;;;643626;215;914900;-72
2021/01/02 02:31:12;;;;;;;58.70;29.70;;;;;;;;;;642518;215;915980;-71
2021/01/02 02:33:37;;;;;;;61.60;30.03;;;;;;;;;;648373;215;911155;-71
2021/01/02 02:36:04;;;;;;;57.97;26.07;;;;;;;;;;642506;215;916136;-72
2021/01/02 02:38:35;;;;;;;57.57;29.57;;;;;;;;;;645652;217;919240;-71
2021/01/02 02:41:02;;;;;;;56.37;29.25;;;;;;;;;;649388;216;908472;-71
2021/01/02 02:43:28;;;;;;;60.63;27.47;;;;;;;;;;644887;214;918960;-71
2021/01/02 02:45:53;;;;;;;56.43;26.67;;;;;;;;;;642666;217;918850;-71
2021/01/02 02:48:19;;;;;;;52.60;27.50;;;;;;;;;;640647;215;924700;-73
2021/01/02 02:50:45;;;;;;;67.93;29.03;;;;;;;;;;648592;216;918880;-72
2021/01/02 02:53:11;;;;;;;66.28;29.95;;;;;;;;;;642631;217;918920;-72
2021/01/02 02:55:38;;;;;;;67.13;29.97;;;;;;;;;;641671;217;940516;-71
2021/01/02 02:58:03;;;;;;;53.40;27.80;;;;;;;;;;645210;217;919497;-72
2021/01/02 03:00:29;;;;;;;53.43;28.07;;;;;;;;;;643250;216;920021;-71
2021/01/02 03:02:55;;;;;;;51.27;27.77;;;;;;;;;;642191;215;1053409;-72
2021/01/02 03:05:21;;;;;;;53.23;26.80;;;;;;;;;;649379;217;919163;-72
2021/01/02 03:07:47;;;;;;;62.88;27.55;;;;;;;;;;641441;215;918938;-72
2021/01/02 03:10:13;;;;;;;60.40;25.97;;;;;;;;;;642938;217;919005;-72
2021/01/02 03:12:40;;;;;;;63.47;29.40;;;;;;;;;;640235;215;918343;-71
2021/01/02 03:15:06;;;;;;;66.03;29.50;;;;;;;;;;645310;217;918701;-72
2021/01/02 03:17:32;;;;;;;49.20;23.83;;;;;;;;;;640164;216;919131;-72
2021/01/02 03:19:58;;;;;;;54.80;27.33;;;;;;;;;;640430;217;1020364;-71
2021/01/02 03:22:24;;;;;;;45.80;23.47;;;;;;;;;;647371;217;919996;-72
2021/01/02 03:24:49;;;;;;;51.78;23.83;;;;;;;;;;643405;215;918403;-72
2021/01/02 03:27:15;;;;;;;57.70;25.73;;;;;;;;;;644538;215;918970;-72
2021/01/02 03:29:41;;;;;;;47.50;27.33;;;;;;;;;;647723;216;918126;-72
2021/01/02 03:32:07;;;;;;;50.03;25.90;;;;;;;;;;645418;216;918349;-72
2021/01/02 03:34:36;;;;;;;60.72;28.08;;;;;;;;;;643095;216;918542;-72
2021/01/02 03:37:01;;;;;;;49.23;27.80;;;;;;;;;;644508;217;918991;-72
2021/01/02 03:39:27;;;;;;;58.30;27.40;;;;;;;;;;646664;215;919173;-71
2021/01/02 03:41:53;;;;;;;55.23;25.17;;;;;;;;;;643212;216;917913;-71
2021/01/02 03:44:19;;;;;;;68.12;28.38;;;;;;;;;;641862;217;918488;-71
2021/01/02 03:46:45;;;;;;;62.13;27.30;;;;;;;;;;648808;215;927109;-71
2021/01/02 03:49:11;;;;;;;62.20;26.40;;;;;;;;;;643443;215;939577;-71
2021/01/02 03:51:36;;;;;;;45.47;22.60;;;;;;;;;;645733;216;919032;-71
2021/01/02 03:54:02;;;;;;;41.50;24.07;;;;;;;;;;647811;216;916873;-70
2021/01/02 03:56:28;;;;;;;50.70;24.57;;;;;;;;;;647382;216;917707;-71
2021/01/02 03:58:54;;;;;;;52.03;24.20;;;;;;;;;;645830;216;919207;-71
2021/01/02 04:01:20;;;;;;;45.03;25.62;;;;;;;;;;643892;215;921165;-69
2021/01/02 04:03:46;;;;;;;55.73;25.90;;;;;;;;;;646941;216;918362;-71
2021/01/02 04:06:12;;;;;;;57.10;24.97;;;;;;;;;;642016;217;918967;-71
2021/01/02 04:08:37;;;;;;;58.20;24.50;;;;;;;;;;642725;216;919476;-71
2021/01/02 04:11:03;;;;;;;43.03;22.40;;;;;;;;;;646770;215;1038674;-71
2021/01/02 04:13:29;;;;;;;54.33;24.23;;;;;;;;;;644674;217;921578;-70
2021/01/02 04:15:55;;;;;;;50.40;23.87;;;;;;;;;;643640;215;918666;-70
2021/01/02 04:18:21;;;;;;;60.70;25.40;;;;;;;;;;649698;216;918566;-71
2021/01/02 04:20:47;;;;;;;53.33;24.50;;;;;;;;;;643352;215;918991;-71
2021/01/02 04:23:13;;;;;;;51.40;22.37;;;;;;;;;;644077;217;919950;-71
2021/01/02 04:25:38;;;;;;;57.00;24.67;;;;;;;;;;646763;216;917215;-70
2021/01/02 04:28:04;;;;;;;52.17;21.53;;;;;;;;;;643491;216;918934;-71
2021/01/02 04:30:30;;;;;;;47.03;23.60;;;;;;;;;;640761;216;1059412;-71
2021/01/02 04:32:56;;;;;;;48.10;23.60;;;;;;;;;;643833;216;918297;-70
2021/01/02 04:35:22;;;;;;;51.25;24.77;;;;;;;;;;647889;215;919514;-71
2021/01/02 04:37:48;;;;;;;55.57;24.37;;;;;;;;;;641763;215;995465;-71
2021/01/02 04:40:14;;;;;;;48.40;28.05;;;;;;;;;;644379;216;918924;-70
2021/01/02 04:42:40;;;;;;;76.90;28.03;;;;;;;;;;646703;217;918059;-71
2021/01/02 04:45:06;;;;;;;67.97;30.67;;;;;;;;;;645843;216;918394;-71
2021/01/02 04:47:32;;;;;;;73.80;30.57;;;;;;;;;;642730;215;953616;-70
2021/01/02 04:49:58;;;;;;;77.27;28.90;;;;;;;;;;648767;216;918601;-70
2021/01/02 04:52:24;;;;;;;72.07;31.87;;;;;;;;;;641041;215;919482;-71
2021/01/02 04:54:50;;;;;;;75.80;32.03;;;;;;;;;;642411;216;918287;-70
2021/01/02 04:57:16;;;;;;;65.13;28.80;;;;;;;;;;640258;216;1013371;-71
2021/01/02 04:59:42;;;;;;;68.40;30.30;;;;;;;;;;633894;221;918145;-71
2021/01/02 05:02:08;;;;;;;68.70;30.77;;;;;;;;;;628501;221;918819;-70
2021/01/02 05:04:34;;;;;;;77.23;30.53;;;;;;;;;;630161;222;918822;-71
2021/01/02 05:07:00;;;;;;;71.37;29.50;;;;;;;;;;633284;222;917479;-70
2021/01/02 05:09:25;;;;;;;64.83;30.00;;;;;;;;;;632505;222;918884;-71
2021/01/02 05:11:52;;;;;;;79.33;32.23;;;;;;;;;;626782;222;918318;-70
2021/01/02 05:14:18;;;;;;;76.87;28.53;;;;;;;;;;634242;222;918178;-70
2021/01/02 05:16:45;;;;;;;67.07;29.13;;;;;;;;;;629907;222;918303;-71
2021/01/02 05:19:10;;;;;;;77.93;31.00;;;;;;;;;;629316;222;918783;-70
2021/01/02 05:21:36;;;;;;;79.60;34.60;;;;;;;;;;635698;222;919655;-71
2021/01/02 05:24:02;;;;;;;86.57;40.70;;;;;;;;;;628547;221;918148;-71
2021/01/02 05:26:27;;;;;;;82.03;31.83;;;;;;;;;;630096;222;918415;-71
2021/01/02 05:28:59;;;;;;;66.37;32.43;;;;;;;;;;628701;222;918833;-71
2021/01/02 05:31:25;;;;;;;78.77;35.97;;;;;;;;;;633364;221;919209;-71
2021/01/02 05:33:51;;;;;;;54.87;29.90;;;;;;;;;;630193;221;919860;-71
2021/01/02 05:36:16;;;;;;;68.93;31.27;;;;;;;;;;630286;221;919257;-71
2021/01/02 05:38:42;;;;;;;83.20;35.90;;;;;;;;;;613886;222;5296128;-72
2021/01/02 05:41:08;;;;;;;68.30;30.80;;;;;;;;;;628662;222;918931;-71
2021/01/02 05:43:34;;;;;;;75.27;33.43;;;;;;;;;;628285;222;919471;-72
2021/01/02 05:46:00;;;;;;;88.27;41.20;;;;;;;;;;630195;222;1021188;-71
2021/01/02 05:48:27;;;;;;;91.97;36.40;;;;;;;;;;642814;216;919727;-74
2021/01/02 05:50:58;;;;;;;67.33;31.70;;;;;;;;;;644157;217;918748;-71
2021/01/02 05:53:23;;;;;;;58.53;30.47;;;;;;;;;;643336;216;918199;-71
2021/01/02 05:56:07;;;;;;;72.43;40.37;;;;;;;;;;642028;215;912878;-72
2021/01/02 05:58:34;;;;;;;75.30;37.20;;;;;;;;;;647824;215;919004;-72
2021/01/02 06:01:00;;;;;;;95.33;38.60;;;;;;;;;;640067;215;1394549;-72
2021/01/02 06:03:26;;;;;;;101.77;40.20;;;;;;;;;;644198;217;915611;-71
2021/01/02 06:05:54;;;;;;;71.07;31.73;;;;;;;;;;639017;215;915754;-72
2021/01/02 06:08:19;;;;;;;86.63;35.33;;;;;;;;;;648826;215;916437;-71
2021/01/02 06:10:45;;;;;;;126.07;44.33;;;;;;;;;;641212;215;915983;-72
2021/01/02 06:13:11;;;;;;;138.53;52.40;;;;;;;;;;644255;215;915678;-72
2021/01/02 06:15:37;;;;;;;149.33;58.90;;;;;;;;;;646374;216;914716;-72
2021/01/02 06:18:03;;;;;;;125.77;52.97;;;;;;;;;;646892;215;894221;-72
2021/01/02 06:20:29;;;;;;;74.10;37.38;;;;;;;;;;641865;215;916665;-72
2021/01/02 06:22:55;;;;;;;76.60;39.37;;;;;;;;;;649608;215;908093;-72
2021/01/02 06:25:20;;;;;;;77.33;36.30;;;;;;;;;;641121;215;1252135;-72
2021/01/02 06:27:46;;;;;;;85.50;41.20;;;;;;;;;;644746;217;918631;-73
2021/01/02 06:30:15;;;;;;;92.90;40.47;;;;;;;;;;642623;216;918705;-72
2021/01/02 06:32:44;;;;;;;82.97;40.47;;;;;;;;;;647584;217;918651;-72
2021/01/02 06:35:17;;;;;;;84.40;38.60;;;;;;;;;;642915;216;916833;-72
2021/01/02 06:38:02;;;;;;;77.60;37.90;;;;;;;;;;641986;217;918701;-73
2021/01/02 06:40:28;;;;;;;84.73;36.70;;;;;;;;;;640705;214;918790;-72
2021/01/02 06:42:56;;;;;;;59.20;30.07;;;;;;;;;;644875;216;918780;-71
2021/01/02 06:45:29;;;;;;;76.93;34.03;;;;;;;;;;648458;216;918978;-72
2021/01/02 06:47:55;;;;;;;72.72;31.87;;;;;;;;;;644726;215;975372;-72
2021/01/02 06:50:21;;;;;;;65.43;32.20;;;;;;;;;;645455;217;918701;-72
2021/01/02 06:52:46;;;;;;;68.03;32.97;;;;;;;;;;641272;215;919087;-72
2021/01/02 06:55:18;;;;;;;85.30;37.90;;;;;;;;;;648304;217;918412;-71
2021/01/02 06:57:44;;;;;;;92.83;40.70;;;;;;;;;;642070;215;921876;-71
2021/01/02 07:00:21;;;;;;;87.87;35.37;;;;;;;;;;642910;217;918971;-72
2021/01/02 07:02:46;;;;;;;83.53;35.53;;;;;;;;;;641529;217;918379;-71
2021/01/02 07:05:12;;;;;;;96.03;38.42;;;;;;;;;;647355;217;918240;-71
2021/01/02 07:07:38;;;;;;;84.57;41.50;;;;;;;;;;641441;214;919545;-72
2021/01/02 07:10:04;;;;;;;70.13;36.63;;;;;;;;;;643412;215;918812;-71
2021/01/02 07:12:31;;;;;;;85.73;34.67;;;;;;;;;;646600;217;917934;-71
2021/01/02 07:14:57;;;;;;;88.55;41.05;;;;;;;;;;645158;217;918781;-71
2021/01/02 07:17:23;;;;;;;80.07;35.53;;;;;;;;;;641834;216;919338;-70
2021/01/02 07:19:49;;;;;;;78.23;37.13;;;;;;;;;;644572;216;918932;-71
2021/01/02 07:22:25;;;;;;;91.47;42.47;;;;;;;;;;646786;215;919082;-71
2021/01/02 07:24:54;;;;;;;103.53;40.23;;;;;;;;;;646442;215;918983;-71
2021/01/02 07:27:21;;;;;;;73.30;36.00;;;;;;;;;;642335;215;918184;-71
2021/01/02 07:29:47;;;;;;;91.53;43.70;;;;;;;;;;644219;217;919822;-70
2021/01/02 07:32:15;;;;;;;82.47;36.93;;;;;;;;;;648434;216;917525;-71
2021/01/02 07:34:41;;;;;;;95.93;39.87;;;;;;;;;;643223;215;920229;-70
2021/01/02 07:37:06;;;;;;;99.27;38.80;;;;;;;;;;644561;216;918795;-70
2021/01/02 07:39:32;;;;;;;87.80;35.90;;;;;;;;;;647154;216;918744;-70
2021/01/02 07:42:00;;;;;;;93.33;43.37;;;;;;;;;;645031;217;919689;-69
2021/01/02 07:44:26;;;;;;;86.33;39.60;;;;;;;;;;642503;215;919355;-70
2021/01/02 07:46:52;;;;;;;100.30;45.70;;;;;;;;;;644512;217;920606;-70
2021/01/02 07:49:17;;;;;;;108.93;42.80;;;;;;;;;;644233;216;918479;-70
2021/01/02 07:51:46;;;;;;;107.60;42.57;;;;;;;;;;642447;216;921593;-70
2021/01/02 07:54:12;;;;;;;112.30;48.27;;;;;;;;;;637190;215;1954900;-70
2021/01/02 07:56:38;;;;;;;84.00;37.27;;;;;;;;;;648372;217;918313;-68
2021/01/02 07:59:09;;;;;;;151.93;64.62;;;;;;;;;;641854;215;918694;-69
2021/01/02 08:01:35;;;;;;;150.30;63.70;;;;;;;;;;643403;215;919276;-69
2021/01/02 08:04:01;;;;;;;113.40;49.00;;;;;;;;;;642561;215;916478;-70
2021/01/02 08:06:27;;;;;;;100.53;41.83;;;;;;;;;;646572;217;918585;-70
2021/01/02 08:08:57;;;;;;;93.47;43.43;;;;;;;;;;643284;215;943960;-69
2021/01/02 08:11:23;;;;;;;109.23;44.67;;;;;;;;;;643844;216;918695;-69
2021/01/02 08:13:48;;;;;;;122.30;46.23;;;;;;;;;;647671;217;918830;-69
2021/01/02 08:16:14;;;;;;;102.07;43.70;;;;;;;;;;640217;215;1029629;-68
2021/01/02 08:18:40;;;;;;;94.87;44.80;;;;;;;;;;643023;215;918449;-68
2021/01/02 08:21:06;;;;;;;101.13;42.60;;;;;;;;;;645525;216;1021693;-68
2021/01/02 08:23:32;;;;;;;118.03;44.27;;;;;;;;;;643777;216;919044;-68
2021/01/02 08:25:58;;;;;;;109.43;43.80;;;;;;;;;;641361;215;944655;-68
2021/01/02 08:28:23;;;;;;;144.37;60.23;;;;;;;;;;642922;216;941959;-68
2021/01/02 08:30:49;;;;;;;99.23;39.57;;;;;;;;;;645226;216;917490;-68
2021/01/02 08:33:15;;;;;;;135.07;56.63;;;;;;;;;;646191;215;919061;-68
2021/01/02 08:35:43;;;;;;;146.13;63.33;;;;;;;;;;643284;215;918955;-68
2021/01/02 08:38:10;;;;;;;119.90;48.60;;;;;;;;;;649922;215;919397;-69
2021/01/02 08:40:36;;;;;;;144.33;60.27;;;;;;;;;;643859;216;931247;-68
2021/01/02 08:43:02;;;;;;;122.20;50.40;;;;;;;;;;643796;217;918572;-69
2021/01/02 08:45:28;;;;;;;218.20;113.62;;;;;;;;;;642863;216;919456;-68
2021/01/02 08:48:00;;;;;;;179.10;77.17;;;;;;;;;;646592;216;929905;-69
2021/01/02 08:50:26;;;;;;;112.20;52.53;;;;;;;;;;642107;215;919491;-70
2021/01/02 08:52:52;;;;;;;189.23;79.40;;;;;;;;;;645967;215;917955;-70
2021/01/02 08:55:17;;;;;;;440.23;198.57;;;;;;;;;;648513;217;918583;-70
2021/01/02 08:57:44;;;;;;;185.73;79.83;;;;;;;;;;646042;215;633497;-70
2021/01/02 09:00:19;;;;;;;154.60;65.43;;;;;;;;;;648293;216;618928;-69
2021/01/02 09:02:45;;;;;;;146.57;60.13;;;;;;;;;;646351;215;704681;-70
2021/01/02 09:05:13;;;;;;;172.00;70.50;;;;;;;;;;651201;215;633217;-69
2021/01/02 09:07:39;;;;;;;147.00;60.70;;;;;;;;;;645656;216;635091;-70
2021/01/02 09:10:11;;;;;;;128.43;53.97;;;;;;;;;;645997;216;634488;-70
2021/01/02 09:12:36;;;;;;;129.73;57.40;;;;;;;;;;644591;217;628052;-70
2021/01/02 09:15:02;;;;;;;148.90;56.37;;;;;;;;;;649915;216;622178;-69
2021/01/02 09:17:28;;;;;;;158.60;61.07;;;;;;;;;;643971;215;643548;-69
2021/01/02 09:19:54;;;;;;;146.00;65.17;;;;;;;;;;645782;217;633001;-72
2021/01/02 09:22:25;;;;;;;180.47;71.63;;;;;;;;;;647937;216;652409;-70
2021/01/02 09:24:46;;;;;;;135.97;61.87;;;;;;;;;;648213;216;654823;-70
2021/01/02 09:27:12;;;;;;;123.17;56.20;;;;;;;;;;646081;216;637051;-70
2021/01/02 09:29:37;;;;;;;105.37;46.93;;;;;;;;;;650358;217;618728;-69
2021/01/02 09:32:03;;;;;;;110.53;49.67;;;;;;;;;;642450;217;615488;-73
2021/01/02 09:34:29;;;;;;;94.23;43.37;;;;;;;;;;647787;217;630522;-69
2021/01/02 09:36:55;;;;;;;125.20;55.30;;;;;;;;;;647844;216;618648;-69
2021/01/02 09:39:22;;;;;;;149.87;65.27;;;;;;;;;;648190;217;641568;-69
2021/01/02 09:41:47;;;;;;;170.97;65.10;;;;;;;;;;644320;217;628239;-68
2021/01/02 09:44:13;;;;;;;166.03;71.73;;;;;;;;;;644116;217;690322;-68
2021/01/02 09:46:39;;;;;;;149.07;67.30;;;;;;;;;;653488;215;641580;-68
2021/01/02 09:49:05;;;;;;;147.87;64.20;;;;;;;;;;647711;215;662988;-68
2021/01/02 09:51:31;;;;;;;141.63;63.20;;;;;;;;;;648995;215;687335;-68
2021/01/02 09:53:57;;;;;;;170.50;70.70;;;;;;;;;;649961;215;639311;-68
2021/01/02 09:56:22;;;;;;;205.93;95.30;;;;;;;;;;645880;217;919156;-69
2021/01/02 09:58:48;;;;;;;202.03;88.50;;;;;;;;;;640511;215;917091;-68
2021/01/02 10:01:14;;;;;;;240.48;112.97;;;;;;;;;;642568;215;934428;-67
2021/01/02 10:03:40;;;;;;;184.93;86.43;;;;;;;;;;643977;215;1044631;-68
2021/01/02 10:06:06;;;;;;;203.80;87.07;;;;;;;;;;644069;216;920731;-68
2021/01/02 10:08:32;;;;;;;188.93;69.77;;;;;;;;;;642438;215;919695;-66
2021/01/02 10:10:58;;;;;;;175.37;68.97;;;;;;;;;;650721;217;919497;-68
2021/01/02 10:13:23;;;;;;;182.13;74.77;;;;;;;;;;642946;217;919078;-68
2021/01/02 10:15:49;;;;;;;193.50;76.75;;;;;;;;;;643609;216;918851;-68
2021/01/02 10:18:15;;;;;;;219.83;85.00;;;;;;;;;;647403;217;917346;-67
2021/01/02 10:20:41;;;;;;;205.53;86.30;;;;;;;;;;640876;215;918831;-68
2021/01/02 10:23:07;;;;;;;453.10;222.77;;;;;;;;;;644567;215;916146;-68
2021/01/02 10:25:33;;;;;;;411.73;173.20;;;;;;;;;;646712;215;916653;-68
2021/01/02 10:27:59;;;;;;;209.37;87.47;;;;;;;;;;643015;217;917605;-68
2021/01/02 10:30:25;;;;;;;361.37;157.55;;;;;;;;;;641296;215;1084890;-68
2021/01/02 10:32:51;;;;;;;474.83;209.53;;;;;;;;;;643590;215;918674;-71
2021/01/02 10:35:17;;;;;;;194.60;75.25;;;;;;;;;;647423;217;918691;-69
2021/01/02 10:37:43;;;;;;;222.57;80.50;;;;;;;;;;644976;217;919201;-68
2021/01/02 10:40:09;;;;;;;199.90;74.30;;;;;;;;;;636028;215;918384;-67
2021/01/02 10:42:35;;;;;;;163.93;67.67;;;;;;;;;;646590;217;919117;-69
2021/01/02 10:45:01;;;;;;;182.57;71.73;;;;;;;;;;641104;216;920054;-68
2021/01/02 10:47:27;;;;;;;242.60;89.43;;;;;;;;;;643771;216;920856;-69
2021/01/02 10:49:53;;;;;;;213.20;85.17;;;;;;;;;;646575;217;919105;-68
2021/01/02 10:52:19;;;;;;;227.13;95.60;;;;;;;;;;639515;215;919846;-67
2021/01/02 10:54:45;;;;;;;214.60;84.30;;;;;;;;;;643533;217;918924;-68
2021/01/02 10:57:11;;;;;;;261.70;121.50;;;;;;;;;;643419;215;917943;-68
2021/01/02 10:59:36;;;;;;;234.33;102.73;;;;;;;;;;647045;217;919147;-68
2021/01/02 11:02:02;;;;;;;224.17;91.03;;;;;;;;;;642440;215;918849;-68
2021/01/02 11:04:28;;;;;;;213.20;89.20;;;;;;;;;;645030;217;919690;-68
2021/01/02 11:06:54;;;;;;;220.73;90.33;;;;;;;;;;647812;216;919861;-67
2021/01/02 11:09:20;;;;;;;226.33;84.70;;;;;;;;;;642928;217;919738;-68
2021/01/02 11:11:46;;;;;;;189.70;77.97;;;;;;;;;;641398;215;1405896;-68
2021/01/02 11:14:12;;;;;;;231.90;96.20;;;;;;;;;;647465;215;917836;-68
2021/01/02 11:16:38;;;;;;;206.57;100.83;;;;;;;;;;643812;217;919108;-68
2021/01/02 11:19:05;;;;;;;244.77;99.62;;;;;;;;;;643848;216;1225581;-68
2021/01/02 11:21:31;;;;;;;229.73;99.17;;;;;;;;;;642560;217;919049;-66
2021/01/02 11:23:57;;;;;;;242.47;103.37;;;;;;;;;;647535;217;918375;-68
2021/01/02 11:26:23;;;;;;;228.13;99.77;;;;;;;;;;641631;216;932317;-70
2021/01/02 11:28:49;;;;;;;297.77;136.13;;;;;;;;;;643449;216;919187;-67
2021/01/02 11:31:15;;;;;;;226.10;93.93;;;;;;;;;;647941;215;914608;-68
2021/01/02 11:33:41;;;;;;;178.13;67.57;;;;;;;;;;642272;215;918342;-67
2021/01/02 11:36:06;;;;;;;186.90;86.07;;;;;;;;;;643970;216;919388;-67
2021/01/02 11:38:32;;;;;;;188.80;73.63;;;;;;;;;;645933;215;923197;-67
2021/01/02 11:40:58;;;;;;;195.60;73.37;;;;;;;;;;643476;216;1020723;-68
2021/01/02 11:43:24;;;;;;;207.62;92.07;;;;;;;;;;644533;215;918257;-67
2021/01/02 11:45:50;;;;;;;245.53;106.60;;;;;;;;;;649306;216;918965;-67
2021/01/02 11:48:16;;;;;;;269.60;114.53;;;;;;;;;;643775;215;912286;-70
2021/01/02 11:50:42;;;;;;;232.13;99.23;;;;;;;;;;645204;216;919534;-67
2021/01/02 11:53:07;;;;;;;235.93;102.60;;;;;;;;;;641728;216;918407;-66
2021/01/02 11:55:33;;;;;;;259.07;107.53;;;;;;;;;;647553;216;1020894;-67
2021/01/02 11:57:59;;;;;;;247.98;102.43;;;;;;;;;;640918;216;999716;-67
2021/01/02 12:00:25;;;;;;;245.73;103.53;;;;;;;;;;641067;217;918751;-66
2021/01/02 12:02:51;;;;;;;272.93;110.87;;;;;;;;;;646024;217;917453;-67
2021/01/02 12:05:17;;;;;;;224.27;98.27;;;;;;;;;;644889;217;919025;-67
2021/01/02 12:44:10;;;;;;;169.27;72.63;;;;;;;;;;643804;216;918834;-68
2021/01/02 12:46:36;;;;;;;172.73;77.90;;;;;;;;;;641546;215;919266;-67
2021/01/02 12:49:02;;;;;;;214.97;80.77;;;;;;;;;;643908;215;918854;-67
2021/01/02 12:51:28;;;;;;;200.53;89.53;;;;;;;;;;647461;216;918499;-67
2021/01/02 12:53:54;;;;;;;189.57;73.83;;;;;;;;;;646708;216;918678;-67
2021/01/02 12:56:20;;;;;;;210.50;91.83;;;;;;;;;;641861;216;919642;-67
2021/01/02 12:58:46;;;;;;;253.20;113.55;;;;;;;;;;648275;216;919046;-67
2021/01/02 13:01:12;;;;;;;215.80;94.73;;;;;;;;;;641645;216;918283;-68
2021/01/02 13:03:38;;;;;;;203.75;79.82;;;;;;;;;;644581;216;1021028;-68
2021/01/02 13:06:04;;;;;;;168.30;70.73;;;;;;;;;;646048;215;1173661;-68
2021/01/02 13:08:30;;;;;;;204.73;81.50;;;;;;;;;;644880;216;918721;-67
2021/01/02 13:10:56;;;;;;;219.45;84.22;;;;;;;;;;641713;216;919746;-68
2021/01/02 13:13:21;;;;;;;224.33;88.67;;;;;;;;;;645188;216;919321;-68
2021/01/02 13:15:48;;;;;;;205.53;85.20;;;;;;;;;;642645;217;917598;-67
2021/01/02 13:18:13;;;;;;;220.30;83.27;;;;;;;;;;643037;217;1024854;-67
2021/01/02 13:20:39;;;;;;;240.70;98.23;;;;;;;;;;645933;215;919087;-66
2021/01/02 13:23:05;;;;;;;225.27;86.80;;;;;;;;;;647250;215;917339;-67
2021/01/02 13:25:31;;;;;;;219.40;83.90;;;;;;;;;;644285;217;919644;-67
2021/01/02 13:27:57;;;;;;;192.33;79.50;;;;;;;;;;643592;215;918518;-67
2021/01/02 13:30:23;;;;;;;206.23;79.00;;;;;;;;;;648900;217;918939;-67
2021/01/02 13:32:49;;;;;;;207.60;78.17;;;;;;;;;;643472;217;919533;-67
2021/01/02 13:35:15;;;;;;;198.30;83.77;;;;;;;;;;647225;215;919241;-67
2021/01/02 13:37:41;;;;;;;200.97;85.10;;;;;;;;;;647023;217;918605;-68
2021/01/02 13:40:08;;;;;;;189.00;82.40;;;;;;;;;;643702;217;919105;-67
2021/01/02 13:42:34;;;;;;;294.10;137.07;;;;;;;;;;642429;217;918837;-67
2021/01/02 13:44:59;;;;;;;251.60;104.00;;;;;;;;;;644423;216;919009;-70
2021/01/02 13:47:25;;;;;;;211.93;90.07;;;;;;;;;;647943;215;879498;-66
2021/01/02 13:49:51;;;;;;;208.53;92.40;;;;;;;;;;643726;215;919754;-67
2021/01/02 13:52:17;;;;;;;238.20;96.27;;;;;;;;;;641532;215;919407;-69
2021/01/02 13:54:43;;;;;;;267.77;126.30;;;;;;;;;;649465;217;918505;-67
2021/01/02 13:57:09;;;;;;;264.63;128.40;;;;;;;;;;645200;216;894646;-67
2021/01/02 13:59:35;;;;;;;272.30;128.13;;;;;;;;;;642005;217;1023114;-67
2021/01/02 14:02:01;;;;;;;247.50;118.83;;;;;;;;;;647723;217;918926;-67
2021/01/02 14:04:27;;;;;;;248.93;119.50;;;;;;;;;;641255;216;918015;-67
2021/01/02 14:06:53;;;;;;;242.30;122.68;;;;;;;;;;644645;215;911453;-67
2021/01/02 14:09:19;;;;;;;238.83;110.20;;;;;;;;;;641876;215;922255;-67
2021/01/02 14:11:44;;;;;;;218.27;89.37;;;;;;;;;;647101;215;915802;-67
2021/01/02 14:14:10;;;;;;;211.10;99.47;;;;;;;;;;636892;217;2170751;-67
2021/01/02 14:16:36;;;;;;;231.40;101.07;;;;;;;;;;643179;216;919325;-67
2021/01/02 14:19:02;;;;;;;212.80;90.83;;;;;;;;;;646694;217;917915;-70
2021/01/02 14:21:28;;;;;;;203.00;82.00;;;;;;;;;;644287;215;918472;-67
2021/01/02 14:23:54;;;;;;;212.37;92.00;;;;;;;;;;642173;216;917621;-67
2021/01/02 14:26:20;;;;;;;262.98;101.97;;;;;;;;;;648519;217;918853;-67
2021/01/02 14:28:46;;;;;;;260.30;100.30;;;;;;;;;;642567;216;916987;-67
2021/01/02 14:31:11;;;;;;;265.00;107.23;;;;;;;;;;642832;215;916812;-67